DAL3741 KLAS-KSAN
Flight info
| Callsign | DAL3741 |
|---|---|
| Flight time | 0h 52m |
| Altitude | 34000 |
| Route | RADYR2 LVELL LUCKI1 |
| Aircraft | A320/M-SDE3FGHIRWY/LB1 |
Departure
| Time | 2026-05-04 21:32 |
|---|---|
| Airport | Harry Reid International Airport (KLAS) |
Arrival
| Time | 2026-05-04 22:24 |
|---|---|
| Airport | San Diego International Airport (KSAN) |
| Time | Latitude | Longitude | Altitude | Speed | Heading |
|---|---|---|---|---|---|
| 2026-05-04 21:09 | 36.08052 | -115.13882 | 2188 ft | 0 kts | 345° |
| 2026-05-04 21:22 | 36.08050 | -115.13881 | 2192 ft | 1 kts | 345° |
| 2026-05-04 21:22 | 36.08034 | -115.13876 | 2192 ft | 3 kts | 345° |
| 2026-05-04 21:23 | 36.08015 | -115.13869 | 2190 ft | 3 kts | 345° |
| 2026-05-04 21:23 | 36.07996 | -115.13863 | 2189 ft | 3 kts | 354° |
| 2026-05-04 21:23 | 36.07976 | -115.13863 | 2190 ft | 3 kts | 11° |
| 2026-05-04 21:23 | 36.07957 | -115.13870 | 2188 ft | 3 kts | 29° |
| 2026-05-04 21:24 | 36.07940 | -115.13884 | 2190 ft | 2 kts | 44° |
| 2026-05-04 21:24 | 36.07934 | -115.13891 | 2190 ft | 1 kts | 45° |
| 2026-05-04 21:24 | 36.07934 | -115.13892 | 2190 ft | 0 kts | 45° |
| 2026-05-04 21:26 | 36.07940 | -115.13884 | 2190 ft | 3 kts | 45° |
| 2026-05-04 21:26 | 36.07997 | -115.13814 | 2191 ft | 15 kts | 45° |
| 2026-05-04 21:26 | 36.07994 | -115.13713 | 2189 ft | 13 kts | 131° |
| 2026-05-04 21:27 | 36.07926 | -115.13631 | 2192 ft | 14 kts | 132° |
| 2026-05-04 21:27 | 36.07851 | -115.13539 | 2191 ft | 16 kts | 135° |
| 2026-05-04 21:27 | 36.07828 | -115.13414 | 2189 ft | 15 kts | 86° |
| 2026-05-04 21:27 | 36.07829 | -115.13290 | 2189 ft | 14 kts | 92° |
| 2026-05-04 21:28 | 36.07829 | -115.13180 | 2192 ft | 12 kts | 90° |
| 2026-05-04 21:28 | 36.07828 | -115.13080 | 2192 ft | 11 kts | 90° |
| 2026-05-04 21:28 | 36.07828 | -115.12965 | 2192 ft | 16 kts | 89° |
| 2026-05-04 21:28 | 36.07829 | -115.12835 | 2188 ft | 14 kts | 90° |
| 2026-05-04 21:29 | 36.07829 | -115.12718 | 2192 ft | 13 kts | 90° |
| 2026-05-04 21:29 | 36.07829 | -115.12613 | 2188 ft | 11 kts | 89° |
| 2026-05-04 21:29 | 36.07829 | -115.12521 | 2188 ft | 10 kts | 90° |
| 2026-05-04 21:29 | 36.07828 | -115.12404 | 2192 ft | 14 kts | 92° |
| 2026-05-04 21:30 | 36.07827 | -115.12292 | 2189 ft | 12 kts | 92° |
| 2026-05-04 21:30 | 36.07796 | -115.12214 | 2188 ft | 10 kts | 131° |
| 2026-05-04 21:30 | 36.07747 | -115.12146 | 2188 ft | 11 kts | 134° |
| 2026-05-04 21:30 | 36.07674 | -115.12123 | 2192 ft | 11 kts | 183° |
| 2026-05-04 21:31 | 36.07641 | -115.12405 | 2192 ft | 53 kts | 269° |
| 2026-05-04 21:31 | 36.07641 | -115.13178 | 2190 ft | 121 kts | 270° |
| 2026-05-04 21:31 | 36.07643 | -115.14449 | 2203 ft | 171 kts | 264° |
| 2026-05-04 21:32 | 36.07648 | -115.15977 | 2761 ft | 182 kts | 264° |
| 2026-05-04 21:32 | 36.07668 | -115.17523 | 3628 ft | 178 kts | 265° |
| 2026-05-04 21:32 | 36.07658 | -115.19068 | 4231 ft | 186 kts | 264° |
| 2026-05-04 21:32 | 36.07616 | -115.20764 | 4552 ft | 208 kts | 259° |
| 2026-05-04 21:33 | 36.07347 | -115.22610 | 5058 ft | 227 kts | 257° |
| 2026-05-04 21:33 | 36.06991 | -115.24501 | 5848 ft | 230 kts | 244° |
| 2026-05-04 21:33 | 36.06037 | -115.26106 | 6655 ft | 237 kts | 220° |
| 2026-05-04 21:33 | 36.04501 | -115.27038 | 7218 ft | 255 kts | 201° |
| 2026-05-04 21:34 | 36.02832 | -115.27776 | 7817 ft | 261 kts | 201° |
| 2026-05-04 21:34 | 36.01123 | -115.28543 | 8725 ft | 262 kts | 201° |
| 2026-05-04 21:34 | 35.99402 | -115.29309 | 9697 ft | 264 kts | 198° |
| 2026-05-04 21:34 | 35.97586 | -115.29817 | 10316 ft | 277 kts | 193° |
| 2026-05-04 21:35 | 35.95620 | -115.30305 | 10667 ft | 298 kts | 193° |
| 2026-05-04 21:35 | 35.93524 | -115.30817 | 11322 ft | 307 kts | 193° |
| 2026-05-04 21:35 | 35.91439 | -115.31323 | 12080 ft | 312 kts | 193° |
| 2026-05-04 21:35 | 35.89295 | -115.31843 | 12868 ft | 316 kts | 193° |
| 2026-05-04 21:36 | 35.87116 | -115.32372 | 13642 ft | 321 kts | 193° |
| 2026-05-04 21:36 | 35.84913 | -115.32910 | 14349 ft | 325 kts | 193° |
| 2026-05-04 21:36 | 35.82686 | -115.33458 | 15044 ft | 328 kts | 194° |
| 2026-05-04 21:36 | 35.80439 | -115.34010 | 15759 ft | 331 kts | 194° |
| 2026-05-04 21:37 | 35.78178 | -115.34566 | 16476 ft | 333 kts | 195° |
| 2026-05-04 21:37 | 35.75896 | -115.35123 | 17197 ft | 336 kts | 195° |
| 2026-05-04 21:37 | 35.73595 | -115.35681 | 17917 ft | 338 kts | 195° |
| 2026-05-04 21:37 | 35.71279 | -115.36246 | 18558 ft | 340 kts | 196° |
| 2026-05-04 21:38 | 35.68949 | -115.36817 | 19173 ft | 343 kts | 196° |
| 2026-05-04 21:38 | 35.66602 | -115.37392 | 19775 ft | 345 kts | 196° |
| 2026-05-04 21:38 | 35.64238 | -115.37972 | 20381 ft | 348 kts | 197° |
| 2026-05-04 21:38 | 35.61855 | -115.38542 | 20994 ft | 351 kts | 194° |
| 2026-05-04 21:39 | 35.59380 | -115.38698 | 21595 ft | 362 kts | 184° |
| 2026-05-04 21:39 | 35.56851 | -115.38510 | 22195 ft | 366 kts | 184° |
| 2026-05-04 21:39 | 35.54299 | -115.38321 | 22793 ft | 368 kts | 184° |
| 2026-05-04 21:39 | 35.51732 | -115.38135 | 23382 ft | 371 kts | 185° |
| 2026-05-04 21:40 | 35.49148 | -115.37950 | 23879 ft | 373 kts | 185° |
| 2026-05-04 21:40 | 35.46553 | -115.37765 | 24402 ft | 373 kts | 186° |
| 2026-05-04 21:40 | 35.43962 | -115.37582 | 24935 ft | 373 kts | 186° |
| 2026-05-04 21:40 | 35.41373 | -115.37400 | 25458 ft | 373 kts | 186° |
| 2026-05-04 21:41 | 35.38782 | -115.37220 | 25968 ft | 373 kts | 187° |
| 2026-05-04 21:41 | 35.36195 | -115.37039 | 26466 ft | 372 kts | 187° |
| 2026-05-04 21:41 | 35.33608 | -115.36859 | 26958 ft | 372 kts | 187° |
| 2026-05-04 21:41 | 35.31021 | -115.36677 | 27429 ft | 373 kts | 188° |
| 2026-05-04 21:42 | 35.28431 | -115.36493 | 27917 ft | 373 kts | 188° |
| 2026-05-04 21:42 | 35.25839 | -115.36305 | 28384 ft | 374 kts | 188° |
| 2026-05-04 21:42 | 35.23239 | -115.36117 | 28825 ft | 374 kts | 188° |
| 2026-05-04 21:42 | 35.20642 | -115.35930 | 29277 ft | 374 kts | 188° |
| 2026-05-04 21:43 | 35.18039 | -115.35746 | 29702 ft | 374 kts | 188° |
| 2026-05-04 21:43 | 35.15433 | -115.35564 | 30070 ft | 375 kts | 189° |
| 2026-05-04 21:43 | 35.12825 | -115.35384 | 30391 ft | 376 kts | 189° |
| 2026-05-04 21:43 | 35.10209 | -115.35203 | 30705 ft | 376 kts | 189° |
| 2026-05-04 21:44 | 35.07595 | -115.35018 | 31031 ft | 377 kts | 188° |
| 2026-05-04 21:44 | 35.04981 | -115.34836 | 31369 ft | 377 kts | 189° |
| 2026-05-04 21:44 | 35.02364 | -115.34655 | 31753 ft | 375 kts | 189° |
| 2026-05-04 21:44 | 34.99739 | -115.34469 | 32221 ft | 372 kts | 189° |
| 2026-05-04 21:45 | 34.97164 | -115.34283 | 32670 ft | 369 kts | 189° |
| 2026-05-04 21:45 | 34.94645 | -115.34102 | 33116 ft | 366 kts | 189° |
| 2026-05-04 21:45 | 34.92080 | -115.33921 | 33569 ft | 363 kts | 190° |
| 2026-05-04 21:45 | 34.89565 | -115.33751 | 33823 ft | 361 kts | 190° |
| 2026-05-04 21:46 | 34.87118 | -115.33580 | 33857 ft | 351 kts | 190° |
| 2026-05-04 21:46 | 34.82333 | -115.33232 | 33859 ft | 341 kts | 191° |
| 2026-05-04 21:47 | 34.77710 | -115.33352 | 33858 ft | 319 kts | 204° |
| 2026-05-04 21:47 | 34.73602 | -115.35066 | 33861 ft | 312 kts | 208° |
| 2026-05-04 21:48 | 34.69516 | -115.36865 | 33856 ft | 313 kts | 208° |
| 2026-05-04 21:48 | 34.65396 | -115.38661 | 33853 ft | 312 kts | 208° |
| 2026-05-04 21:49 | 34.61307 | -115.40445 | 33849 ft | 312 kts | 208° |
| 2026-05-04 21:49 | 34.57250 | -115.42216 | 33843 ft | 312 kts | 208° |
| 2026-05-04 21:50 | 34.53168 | -115.43991 | 33836 ft | 312 kts | 208° |
| 2026-05-04 21:50 | 34.49086 | -115.45768 | 33834 ft | 312 kts | 208° |
| 2026-05-04 21:51 | 34.45007 | -115.47552 | 33832 ft | 312 kts | 208° |
| 2026-05-04 21:51 | 34.40926 | -115.49328 | 33831 ft | 312 kts | 208° |
| 2026-05-04 21:52 | 34.37503 | -115.50810 | 33830 ft | 312 kts | 208° |
| 2026-05-04 21:52 | 34.33415 | -115.52585 | 33830 ft | 312 kts | 209° |
| 2026-05-04 21:53 | 34.29708 | -115.55074 | 33831 ft | 304 kts | 217° |
| 2026-05-04 21:53 | 34.26092 | -115.57751 | 33835 ft | 305 kts | 217° |
| 2026-05-04 21:54 | 34.22496 | -115.60403 | 33842 ft | 305 kts | 217° |
| 2026-05-04 21:54 | 34.18633 | -115.62621 | 33842 ft | 311 kts | 209° |
| 2026-05-04 21:55 | 34.14596 | -115.64516 | 33850 ft | 311 kts | 209° |
| 2026-05-04 21:55 | 34.10569 | -115.66425 | 33850 ft | 311 kts | 209° |
| 2026-05-04 21:56 | 34.06544 | -115.68329 | 33849 ft | 310 kts | 209° |
| 2026-05-04 21:56 | 34.02513 | -115.70229 | 33860 ft | 312 kts | 209° |
| 2026-05-04 21:57 | 33.98475 | -115.72125 | 33867 ft | 311 kts | 209° |
| 2026-05-04 21:57 | 33.94445 | -115.74017 | 33877 ft | 310 kts | 209° |
| 2026-05-04 21:58 | 33.90425 | -115.75922 | 33871 ft | 310 kts | 209° |
| 2026-05-04 21:58 | 33.86438 | -115.77883 | 33877 ft | 310 kts | 209° |
| 2026-05-04 21:59 | 33.82428 | -115.79869 | 33896 ft | 318 kts | 209° |
| 2026-05-04 21:59 | 33.78252 | -115.81930 | 33901 ft | 328 kts | 209° |
| 2026-05-04 22:00 | 33.74000 | -115.83974 | 33906 ft | 330 kts | 208° |
| 2026-05-04 22:00 | 33.69713 | -115.85960 | 33910 ft | 330 kts | 208° |
| 2026-05-04 22:00 | 33.67578 | -115.86943 | 33505 ft | 326 kts | 208° |
| 2026-05-04 22:01 | 33.65483 | -115.87914 | 32986 ft | 319 kts | 208° |
| 2026-05-04 22:01 | 33.63449 | -115.88858 | 32481 ft | 309 kts | 208° |
| 2026-05-04 22:01 | 33.61461 | -115.89785 | 31957 ft | 305 kts | 208° |
| 2026-05-04 22:01 | 33.59494 | -115.90704 | 31418 ft | 302 kts | 208° |
| 2026-05-04 22:02 | 33.57541 | -115.91617 | 30894 ft | 301 kts | 208° |
| 2026-05-04 22:02 | 33.55593 | -115.92527 | 30376 ft | 299 kts | 208° |
| 2026-05-04 22:02 | 33.53663 | -115.93428 | 29850 ft | 297 kts | 209° |
| 2026-05-04 22:02 | 33.51884 | -115.94605 | 29247 ft | 289 kts | 220° |
| 2026-05-04 22:03 | 33.50458 | -115.96275 | 28663 ft | 287 kts | 232° |
| 2026-05-04 22:03 | 33.49318 | -115.98235 | 28084 ft | 287 kts | 233° |
| 2026-05-04 22:03 | 33.48186 | -116.00196 | 27500 ft | 286 kts | 233° |
| 2026-05-04 22:03 | 33.47050 | -116.02150 | 26918 ft | 285 kts | 234° |
| 2026-05-04 22:04 | 33.45918 | -116.04097 | 26352 ft | 285 kts | 234° |
| 2026-05-04 22:04 | 33.44787 | -116.06039 | 25794 ft | 284 kts | 234° |
| 2026-05-04 22:04 | 33.43658 | -116.07979 | 25253 ft | 284 kts | 234° |
| 2026-05-04 22:04 | 33.42529 | -116.09917 | 24708 ft | 284 kts | 234° |
| 2026-05-04 22:05 | 33.41399 | -116.11856 | 24183 ft | 284 kts | 234° |
| 2026-05-04 22:05 | 33.40267 | -116.13801 | 23665 ft | 285 kts | 235° |
| 2026-05-04 22:05 | 33.39140 | -116.15746 | 23073 ft | 284 kts | 235° |
| 2026-05-04 22:05 | 33.38014 | -116.17687 | 22471 ft | 284 kts | 235° |
| 2026-05-04 22:06 | 33.36884 | -116.19623 | 21868 ft | 284 kts | 235° |
| 2026-05-04 22:06 | 33.35752 | -116.21560 | 21280 ft | 284 kts | 235° |
| 2026-05-04 22:06 | 33.34603 | -116.23512 | 20715 ft | 296 kts | 233° |
| 2026-05-04 22:06 | 33.33115 | -116.25263 | 20181 ft | 306 kts | 218° |
| 2026-05-04 22:07 | 33.31222 | -116.26499 | 19708 ft | 313 kts | 211° |
| 2026-05-04 22:07 | 33.29265 | -116.27646 | 19234 ft | 313 kts | 211° |
| 2026-05-04 22:07 | 33.27307 | -116.28790 | 18774 ft | 314 kts | 211° |
| 2026-05-04 22:07 | 33.25346 | -116.29936 | 18315 ft | 314 kts | 211° |
| 2026-05-04 22:08 | 33.23385 | -116.31080 | 17793 ft | 314 kts | 211° |
| 2026-05-04 22:08 | 33.21428 | -116.32224 | 17274 ft | 313 kts | 211° |
| 2026-05-04 22:08 | 33.19468 | -116.33366 | 16766 ft | 313 kts | 211° |
| 2026-05-04 22:08 | 33.17511 | -116.34507 | 16256 ft | 312 kts | 211° |
| 2026-05-04 22:09 | 33.15562 | -116.35644 | 15762 ft | 312 kts | 210° |
| 2026-05-04 22:09 | 33.13620 | -116.36783 | 15278 ft | 311 kts | 210° |
| 2026-05-04 22:09 | 33.11672 | -116.37927 | 14798 ft | 312 kts | 210° |
| 2026-05-04 22:09 | 33.09723 | -116.39068 | 14326 ft | 312 kts | 210° |
| 2026-05-04 22:10 | 33.07778 | -116.40206 | 13865 ft | 312 kts | 209° |
| 2026-05-04 22:10 | 33.07121 | -116.40590 | 13699 ft | 312 kts | 209° |
| 2026-05-04 22:10 | 33.05494 | -116.41524 | 13262 ft | 312 kts | 209° |
| 2026-05-04 22:10 | 33.03564 | -116.42637 | 12747 ft | 304 kts | 210° |
| 2026-05-04 22:11 | 33.01676 | -116.43736 | 12240 ft | 299 kts | 210° |
| 2026-05-04 22:11 | 32.99937 | -116.45018 | 11745 ft | 292 kts | 221° |
| 2026-05-04 22:11 | 32.98399 | -116.46583 | 11257 ft | 290 kts | 223° |
| 2026-05-04 22:11 | 32.96869 | -116.48139 | 10772 ft | 288 kts | 222° |
| 2026-05-04 22:12 | 32.95340 | -116.49688 | 10301 ft | 287 kts | 223° |
| 2026-05-04 22:12 | 32.93824 | -116.51221 | 9994 ft | 286 kts | 222° |
| 2026-05-04 22:12 | 32.92310 | -116.52751 | 9743 ft | 285 kts | 222° |
| 2026-05-04 22:12 | 32.90795 | -116.54277 | 9490 ft | 285 kts | 222° |
| 2026-05-04 22:13 | 32.89284 | -116.55797 | 9232 ft | 284 kts | 222° |
| 2026-05-04 22:13 | 32.87772 | -116.57314 | 8971 ft | 284 kts | 223° |
| 2026-05-04 22:13 | 32.86262 | -116.58830 | 8717 ft | 284 kts | 222° |
| 2026-05-04 22:13 | 32.84780 | -116.60318 | 8461 ft | 271 kts | 223° |
| 2026-05-04 22:14 | 32.83371 | -116.61732 | 8215 ft | 262 kts | 223° |
| 2026-05-04 22:14 | 32.81986 | -116.63125 | 8055 ft | 260 kts | 223° |
| 2026-05-04 22:14 | 32.80624 | -116.64493 | 8033 ft | 260 kts | 223° |
| 2026-05-04 22:14 | 32.79234 | -116.65891 | 8029 ft | 262 kts | 223° |
| 2026-05-04 22:15 | 32.77865 | -116.67315 | 8038 ft | 261 kts | 228° |
| 2026-05-04 22:15 | 32.76788 | -116.69030 | 7948 ft | 257 kts | 241° |
| 2026-05-04 22:15 | 32.75911 | -116.70876 | 7371 ft | 258 kts | 242° |
| 2026-05-04 22:15 | 32.75036 | -116.72732 | 6958 ft | 257 kts | 242° |
| 2026-05-04 22:16 | 32.74163 | -116.74584 | 6564 ft | 256 kts | 243° |
| 2026-05-04 22:16 | 32.73291 | -116.76429 | 6136 ft | 256 kts | 243° |
| 2026-05-04 22:16 | 32.72421 | -116.78268 | 6018 ft | 256 kts | 242° |
| 2026-05-04 22:16 | 32.71547 | -116.80118 | 6024 ft | 258 kts | 242° |
| 2026-05-04 22:17 | 32.70695 | -116.81994 | 6020 ft | 258 kts | 248° |
| 2026-05-04 22:17 | 32.70051 | -116.83990 | 5677 ft | 257 kts | 251° |
| 2026-05-04 22:17 | 32.69451 | -116.85913 | 5371 ft | 240 kts | 251° |
| 2026-05-04 22:17 | 32.68893 | -116.87710 | 5103 ft | 224 kts | 251° |
| 2026-05-04 22:18 | 32.68381 | -116.89390 | 4852 ft | 210 kts | 251° |
| 2026-05-04 22:18 | 32.67906 | -116.91003 | 4607 ft | 206 kts | 252° |
| 2026-05-04 22:18 | 32.67451 | -116.92609 | 4361 ft | 205 kts | 258° |
| 2026-05-04 22:18 | 32.67370 | -116.94272 | 4144 ft | 202 kts | 278° |
| 2026-05-04 22:19 | 32.67731 | -116.95884 | 3902 ft | 204 kts | 286° |
| 2026-05-04 22:19 | 32.68134 | -116.97505 | 3658 ft | 206 kts | 286° |
| 2026-05-04 22:19 | 32.68532 | -116.99128 | 3536 ft | 200 kts | 286° |
| 2026-05-04 22:19 | 32.68912 | -117.00686 | 3262 ft | 194 kts | 286° |
| 2026-05-04 22:20 | 32.69277 | -117.02184 | 2978 ft | 182 kts | 285° |
| 2026-05-04 22:20 | 32.69616 | -117.03567 | 2753 ft | 167 kts | 285° |
| 2026-05-04 22:20 | 32.69919 | -117.04806 | 2596 ft | 146 kts | 285° |
| 2026-05-04 22:20 | 32.70190 | -117.05917 | 2400 ft | 136 kts | 285° |
| 2026-05-04 22:21 | 32.70449 | -117.06983 | 2225 ft | 133 kts | 285° |
| 2026-05-04 22:21 | 32.70709 | -117.08029 | 2037 ft | 132 kts | 286° |
| 2026-05-04 22:21 | 32.70968 | -117.09065 | 1842 ft | 131 kts | 284° |
| 2026-05-04 22:21 | 32.71192 | -117.10112 | 1658 ft | 131 kts | 283° |
| 2026-05-04 22:22 | 32.71448 | -117.11142 | 1488 ft | 130 kts | 286° |
| 2026-05-04 22:22 | 32.71701 | -117.12176 | 1241 ft | 130 kts | 284° |
| 2026-05-04 22:22 | 32.71958 | -117.13216 | 1054 ft | 131 kts | 286° |
| 2026-05-04 22:22 | 32.72214 | -117.14244 | 826 ft | 130 kts | 285° |
| 2026-05-04 22:23 | 32.72460 | -117.15268 | 655 ft | 129 kts | 284° |
| 2026-05-04 22:23 | 32.72705 | -117.16296 | 460 ft | 129 kts | 286° |
| 2026-05-04 22:23 | 32.72952 | -117.17321 | 191 ft | 129 kts | 287° |
| 2026-05-04 22:23 | 32.73199 | -117.18323 | 41 ft | 121 kts | 287° |
| 2026-05-04 22:24 | 32.73409 | -117.19184 | 23 ft | 92 kts | 286° |
| 2026-05-04 22:24 | 32.73533 | -117.19696 | 25 ft | 31 kts | 284° |
| 2026-05-04 22:24 | 32.73493 | -117.19889 | 23 ft | 22 kts | 256° |
| 2026-05-04 22:24 | 32.73499 | -117.20007 | 23 ft | 9 kts | 286° |
| 2026-05-04 22:25 | 32.73519 | -117.20077 | 23 ft | 10 kts | 289° |
| 2026-05-04 22:25 | 32.73544 | -117.20166 | 23 ft | 13 kts | 285° |
| 2026-05-04 22:25 | 32.73504 | -117.20243 | 23 ft | 11 kts | 197° |
| 2026-05-04 22:25 | 32.73433 | -117.20264 | 23 ft | 10 kts | 195° |
| 2026-05-04 22:26 | 32.73384 | -117.20289 | 23 ft | 5 kts | 236° |
| 2026-05-04 22:26 | 32.73381 | -117.20322 | 23 ft | 3 kts | 264° |
| 2026-05-04 22:26 | 32.73379 | -117.20344 | 23 ft | 1 kts | 264° |
| 2026-05-04 22:26 | 32.73378 | -117.20349 | 23 ft | 0 kts | 264° |